createdAt,value
2019-02-28T00:01:30.436Z,13.60
2019-02-28T00:03:59.090Z,11.93
2019-02-28T00:06:26.907Z,10.70
2019-02-28T00:08:54.752Z,15.43
2019-02-28T00:11:22.596Z,11.90
2019-02-28T00:13:52.305Z,10.07
2019-02-28T00:16:20.159Z,11.33
2019-02-28T00:18:49.953Z,10.00
2019-02-28T00:21:17.621Z,8.90
2019-02-28T00:23:45.407Z,10.23
2019-02-28T00:26:13.150Z,10.73
2019-02-28T00:28:41.054Z,10.50
2019-02-28T00:31:08.770Z,11.23
2019-02-28T00:33:36.550Z,10.87
2019-02-28T00:36:04.311Z,9.23
2019-02-28T00:38:32.257Z,10.63
2019-02-28T00:40:59.989Z,9.83
2019-02-28T00:43:27.931Z,9.93
2019-02-28T00:45:55.809Z,10.10
2019-02-28T00:48:23.563Z,10.97
2019-02-28T00:50:51.513Z,8.20
2019-02-28T00:53:19.273Z,13.17
2019-02-28T00:55:47.195Z,10.10
2019-02-28T00:58:15.127Z,10.50
2019-02-28T01:00:42.871Z,9.63
2019-02-28T01:03:10.637Z,9.53
2019-02-28T01:05:38.424Z,10.67
2019-02-28T01:08:06.343Z,10.93
2019-02-28T01:10:38.795Z,12.07
2019-02-28T01:13:03.959Z,11.90
2019-02-28T01:15:31.956Z,12.63
2019-02-28T01:18:00.409Z,9.30
2019-02-28T01:20:29.203Z,11.90
2019-02-28T01:22:58.475Z,11.40
2019-02-28T01:25:26.617Z,9.40
2019-02-28T01:27:54.412Z,10.90
2019-02-28T01:30:22.348Z,10.60
2019-02-28T01:32:50.971Z,13.37
2019-02-28T01:35:18.886Z,11.17
2019-02-28T01:37:46.604Z,9.00
2019-02-28T01:40:14.706Z,10.03
2019-02-28T01:42:42.531Z,11.50
2019-02-28T01:45:11.025Z,11.33
2019-02-28T01:47:38.905Z,9.60
2019-02-28T01:50:06.978Z,9.07
2019-02-28T01:52:34.696Z,8.90
2019-02-28T01:55:02.857Z,10.53
2019-02-28T01:57:30.574Z,10.10
2019-02-28T01:59:58.530Z,9.83
2019-02-28T02:02:26.266Z,9.13
2019-02-28T02:04:54.028Z,11.40
2019-02-28T02:07:21.854Z,10.00
2019-02-28T02:09:49.897Z,10.57
2019-02-28T02:12:17.797Z,8.43
2019-02-28T02:14:45.867Z,9.67
2019-02-28T02:17:13.881Z,9.80
2019-02-28T02:19:41.634Z,9.17
2019-02-28T02:22:10.118Z,8.90
2019-02-28T02:24:38.020Z,10.63
2019-02-28T02:27:06.007Z,9.70
2019-02-28T02:29:36.269Z,9.17
2019-02-28T02:32:03.774Z,10.07
2019-02-28T02:34:31.517Z,8.97
2019-02-28T02:36:59.225Z,11.27
2019-02-28T02:39:27.153Z,8.77
2019-02-28T02:41:55.032Z,9.37
2019-02-28T02:44:22.770Z,10.10
2019-02-28T02:46:55.443Z,9.47
2019-02-28T02:49:20.379Z,8.77
2019-02-28T02:51:50.359Z,9.10
2019-02-28T02:54:19.629Z,8.57
2019-02-28T02:56:47.552Z,9.20
2019-02-28T02:59:15.303Z,10.93
2019-02-28T03:01:43.068Z,11.17
2019-02-28T03:04:10.833Z,9.43
2019-02-28T03:06:38.726Z,8.10
2019-02-28T03:09:10.001Z,8.63
2019-02-28T03:11:37.472Z,9.03
2019-02-28T03:14:05.235Z,9.40
2019-02-28T03:16:34.544Z,9.40
2019-02-28T03:19:02.432Z,10.33
2019-02-28T03:21:30.353Z,10.80
2019-02-28T03:23:58.145Z,8.60
2019-02-28T03:26:25.880Z,8.20
2019-02-28T03:28:53.613Z,9.27
2019-02-28T03:31:21.552Z,7.63
2019-02-28T03:33:49.317Z,8.77
2019-02-28T03:36:17.247Z,9.47
2019-02-28T03:38:49.625Z,9.57
2019-02-28T03:41:17.846Z,8.40
2019-02-28T03:43:44.361Z,10.17
2019-02-28T03:46:12.311Z,10.30
2019-02-28T03:48:40.093Z,7.97
2019-02-28T03:51:07.873Z,10.73
2019-02-28T03:53:35.763Z,14.93
2019-02-28T03:56:03.741Z,7.80
2019-02-28T03:58:31.774Z,9.77
2019-02-28T04:00:59.518Z,9.47
2019-02-28T04:03:33.386Z,8.87
2019-02-28T04:06:03.395Z,9.23
2019-02-28T04:08:30.366Z,8.47
2019-02-28T04:10:56.611Z,8.33
2019-02-28T04:13:24.352Z,9.60
2019-02-28T04:16:07.609Z,8.33
2019-02-28T04:18:22.215Z,9.03
2019-02-28T04:20:49.952Z,9.30
2019-02-28T04:23:17.871Z,9.30
2019-02-28T04:25:45.606Z,9.87
2019-02-28T04:28:17.266Z,9.93
2019-02-28T04:30:44.002Z,8.53
2019-02-28T04:33:12.134Z,9.70
2019-02-28T04:35:39.868Z,10.10
2019-02-28T04:38:07.616Z,8.10
2019-02-28T04:40:35.372Z,9.93
2019-02-28T04:43:03.299Z,9.67
2019-02-28T04:45:31.061Z,9.60
2019-02-28T04:47:59.024Z,11.77
2019-02-28T04:50:31.194Z,13.60
2019-02-28T04:52:56.598Z,8.77
2019-02-28T04:55:24.369Z,10.43
2019-02-28T04:57:52.406Z,9.63
2019-02-28T05:00:20.183Z,10.80
2019-02-28T05:02:47.972Z,8.20
2019-02-28T05:05:15.760Z,10.00
2019-02-28T05:07:43.669Z,10.97
2019-02-28T05:10:11.548Z,13.47
2019-02-28T05:12:39.876Z,13.37
2019-02-28T05:15:09.028Z,11.17
2019-02-28T05:17:36.940Z,12.70
2019-02-28T05:20:07.284Z,11.47
2019-02-28T05:22:35.095Z,10.67
2019-02-28T05:25:03.164Z,10.80
2019-02-28T05:27:34.831Z,11.20
2019-02-28T05:30:00.761Z,9.23
2019-02-28T05:32:28.660Z,10.10
2019-02-28T05:34:56.396Z,10.13
2019-02-28T05:37:24.326Z,11.10
2019-02-28T05:39:52.125Z,11.60
2019-02-28T05:42:20.248Z,10.30
2019-02-28T05:44:49.834Z,11.67
2019-02-28T05:47:17.760Z,10.10
2019-02-28T05:49:45.554Z,10.87
2019-02-28T05:52:13.468Z,11.33
2019-02-28T05:54:41.230Z,12.57
2019-02-28T05:57:09.085Z,11.73
2019-02-28T05:59:37.062Z,13.37
2019-02-28T06:02:04.819Z,11.90
2019-02-28T06:04:34.178Z,11.83
2019-02-28T06:07:02.254Z,12.37
2019-02-28T06:09:30.194Z,12.83
2019-02-28T06:11:57.979Z,12.23
2019-02-28T06:14:27.537Z,12.03
2019-02-28T06:16:55.500Z,11.60
2019-02-28T06:19:23.239Z,11.53
2019-02-28T06:21:52.945Z,13.13
2019-02-28T06:24:20.647Z,18.13
2019-02-28T06:26:48.452Z,13.83
2019-02-28T06:29:16.258Z,15.33
2019-02-28T06:31:45.466Z,15.90
2019-02-28T06:34:13.731Z,13.17
2019-02-28T06:36:41.454Z,15.27
2019-02-28T06:39:09.227Z,11.60
2019-02-28T06:41:39.850Z,12.67
2019-02-28T06:44:06.843Z,15.63
2019-02-28T06:46:34.628Z,14.67
2019-02-28T06:49:06.990Z,17.30
2019-02-28T06:51:32.079Z,17.50
2019-02-28T06:54:00.075Z,13.63
2019-02-28T06:56:27.826Z,14.53
2019-02-28T06:58:55.787Z,16.60
2019-02-28T07:01:23.537Z,16.67
2019-02-28T07:03:53.597Z,16.50
2019-02-28T07:06:20.971Z,14.70
2019-02-28T07:08:48.720Z,18.60
2019-02-28T07:11:19.941Z,16.40
2019-02-28T07:13:46.516Z,19.70
2019-02-28T07:16:14.303Z,19.73
2019-02-28T07:18:42.331Z,20.47
2019-02-28T07:21:10.322Z,19.20
2019-02-28T07:23:38.254Z,18.43
2019-02-28T07:26:06.023Z,23.33
2019-02-28T07:28:37.415Z,20.33
2019-02-28T07:31:03.480Z,23.60
2019-02-28T07:33:31.237Z,24.57
2019-02-28T07:35:59.054Z,24.00
2019-02-28T07:38:29.023Z,20.53
2019-02-28T07:40:56.507Z,22.37
2019-02-28T07:43:24.273Z,21.57
2019-02-28T07:45:53.494Z,20.43
2019-02-28T07:48:26.823Z,23.10
2019-02-28T07:50:50.972Z,26.43
2019-02-28T07:53:18.724Z,26.00
2019-02-28T07:55:46.508Z,27.53
2019-02-28T07:58:15.252Z,28.03
2019-02-28T08:00:43.072Z,28.47
2019-02-28T08:03:11.972Z,37.93
2019-02-28T08:05:39.803Z,30.90
2019-02-28T08:08:07.598Z,32.47
2019-02-28T08:10:35.474Z,29.73
2019-02-28T08:13:04.068Z,32.20
2019-02-28T08:15:31.939Z,26.83
2019-02-28T08:17:59.684Z,30.60
2019-02-28T08:20:30.759Z,31.30
2019-02-28T08:22:57.786Z,30.33
2019-02-28T08:25:25.793Z,35.80
2019-02-28T08:27:59.143Z,31.03
2019-02-28T08:30:23.322Z,31.37
2019-02-28T08:32:51.137Z,33.20
2019-02-28T08:35:19.055Z,35.93
2019-02-28T08:37:46.805Z,30.77
2019-02-28T08:40:16.573Z,38.47
2019-02-28T08:42:44.295Z,32.90
2019-02-28T08:45:12.964Z,33.07
2019-02-28T08:47:40.743Z,36.57
2019-02-28T08:50:12.135Z,34.17
2019-02-28T08:52:41.012Z,32.27
2019-02-28T08:55:11.862Z,32.27
2019-02-28T08:57:39.639Z,36.53
2019-02-28T09:00:11.453Z,60.47
2019-02-28T09:02:39.183Z,29.43
2019-02-28T09:05:07.440Z,33.30
2019-02-28T09:07:35.199Z,35.03
2019-02-28T09:10:06.383Z,38.43
2019-02-28T09:12:34.116Z,35.27
2019-02-28T09:15:02.061Z,34.57
2019-02-28T09:17:29.851Z,30.63
2019-02-28T09:19:57.661Z,39.13
2019-02-28T09:22:27.351Z,36.30
2019-02-28T09:24:55.063Z,35.13
2019-02-28T09:27:22.827Z,36.60
2019-02-28T09:29:54.509Z,37.20
2019-02-28T09:32:20.229Z,35.63
2019-02-28T09:34:47.861Z,36.90
2019-02-28T09:37:15.654Z,48.63
2019-02-28T09:39:43.390Z,38.17
2019-02-28T09:42:14.819Z,34.23
2019-02-28T09:44:40.854Z,34.73
2019-02-28T09:47:11.576Z,36.17
2019-02-28T09:49:38.315Z,33.10
2019-02-28T09:52:07.225Z,36.73
2019-02-28T09:54:35.108Z,39.47
2019-02-28T09:57:02.890Z,35.93
2019-02-28T09:59:30.636Z,35.83
2019-02-28T10:02:01.321Z,35.97
2019-02-28T10:04:30.637Z,39.07
2019-02-28T10:06:57.822Z,35.03
2019-02-28T10:09:25.561Z,34.27
2019-02-28T10:11:53.372Z,36.77
2019-02-28T10:14:21.310Z,34.63
2019-02-28T10:16:49.528Z,35.90
2019-02-28T10:19:18.715Z,37.37
2019-02-28T10:21:51.812Z,37.13
2019-02-28T10:24:16.166Z,34.83
2019-02-28T10:26:43.939Z,37.90
2019-02-28T10:29:11.695Z,40.17
2019-02-28T10:31:39.487Z,33.60
2019-02-28T10:34:07.242Z,33.70
2019-02-28T10:36:35.015Z,37.77
2019-02-28T10:39:05.889Z,37.67
2019-02-28T10:41:34.646Z,35.40
2019-02-28T10:44:02.381Z,43.13
2019-02-28T10:46:30.152Z,37.20
2019-02-28T10:48:57.934Z,35.00
2019-02-28T10:51:25.731Z,36.67
2019-02-28T10:53:53.459Z,33.00
2019-02-28T10:56:21.212Z,37.60
2019-02-28T10:58:50.139Z,33.87
2019-02-28T11:01:18.619Z,39.00
2019-02-28T11:03:46.452Z,35.90
2019-02-28T11:06:14.331Z,39.63
2019-02-28T11:08:44.443Z,40.80
2019-02-28T11:11:12.685Z,37.07
2019-02-28T11:13:40.529Z,39.77
2019-02-28T11:16:08.279Z,36.47
2019-02-28T11:18:36.546Z,38.87
2019-02-28T11:21:04.289Z,35.03
2019-02-28T11:23:33.264Z,35.83
2019-02-28T11:26:03.412Z,37.50
2019-02-28T11:28:31.821Z,32.43
2019-02-28T11:31:01.169Z,37.80
2019-02-28T11:33:30.620Z,40.28
2019-02-28T11:35:59.650Z,36.58
2019-02-28T11:38:27.575Z,38.17
2019-02-28T11:40:57.528Z,36.58
2019-02-28T11:43:26.752Z,36.40
2019-02-28T11:45:56.428Z,34.95
2019-02-28T11:48:25.115Z,32.10
2019-02-28T11:50:52.856Z,34.58
2019-02-28T11:53:20.612Z,26.05
2019-02-28T11:55:48.358Z,33.92
2019-02-28T11:58:17.677Z,33.45
2019-02-28T12:00:45.781Z,33.35
2019-02-28T12:03:13.586Z,38.28
2019-02-28T12:05:41.464Z,35.80
2019-02-28T12:08:10.542Z,37.67
2019-02-28T12:10:38.488Z,35.48
2019-02-28T12:13:06.275Z,31.30
2019-02-28T12:15:34.065Z,35.63
2019-02-28T12:18:04.521Z,37.50
2019-02-28T12:20:31.578Z,38.20
2019-02-28T12:22:59.353Z,39.23
2019-02-28T12:25:27.502Z,38.88
2019-02-28T12:27:55.421Z,40.85
2019-02-28T12:30:26.207Z,39.42
2019-02-28T12:32:55.948Z,36.05
2019-02-28T12:35:23.888Z,39.50
2019-02-28T12:37:54.038Z,39.63
2019-02-28T12:40:25.200Z,43.50
2019-02-28T12:42:52.965Z,42.10
2019-02-28T12:45:25.182Z,40.50
2019-02-28T12:47:53.087Z,42.67
2019-02-28T12:50:20.915Z,42.40
2019-02-28T12:52:49.903Z,41.70
2019-02-28T12:55:18.736Z,41.90
2019-02-28T12:57:46.688Z,40.90
2019-02-28T13:00:23.433Z,41.03
2019-02-28T13:02:52.426Z,44.23
2019-02-28T13:05:20.163Z,43.07
2019-02-28T13:07:48.586Z,43.43
2019-02-28T13:10:17.981Z,45.77
2019-02-28T13:12:48.941Z,42.73
2019-02-28T13:15:16.105Z,42.47
2019-02-28T13:17:43.945Z,45.03
2019-02-28T13:20:14.678Z,42.10
2019-02-28T13:22:42.429Z,43.97
2019-02-28T13:25:11.808Z,39.33
2019-02-28T13:27:41.611Z,41.53
2019-02-28T13:30:15.969Z,43.20
2019-02-28T13:32:45.016Z,44.17
2019-02-28T13:35:19.665Z,42.77
2019-02-28T13:37:47.697Z,44.90
2019-02-28T13:40:15.525Z,43.73
2019-02-28T13:42:44.000Z,46.97
2019-02-28T13:45:14.748Z,56.10
2019-02-28T13:47:46.287Z,42.67
2019-02-28T13:50:17.364Z,40.57
2019-02-28T13:52:45.368Z,43.20
2019-02-28T13:55:14.339Z,48.40
2019-02-28T13:57:43.687Z,44.30
2019-02-28T14:00:22.697Z,43.10
2019-02-28T14:02:53.000Z,44.80
2019-02-28T14:05:21.021Z,44.87
2019-02-28T14:07:49.471Z,59.80
2019-02-28T14:10:17.960Z,42.50
2019-02-28T14:12:45.965Z,39.77
2019-02-28T14:15:18.076Z,44.93
2019-02-28T14:17:45.920Z,44.53
2019-02-28T14:20:13.966Z,43.73
2019-02-28T14:22:42.718Z,46.10
2019-02-28T14:25:11.486Z,42.83
2019-02-28T14:27:39.270Z,45.03
2019-02-28T14:30:10.978Z,43.63
2019-02-28T14:32:42.134Z,42.43
2019-02-28T14:35:08.682Z,46.53
2019-02-28T14:37:36.452Z,39.97
2019-02-28T14:40:08.042Z,46.60
2019-02-28T14:42:35.858Z,44.73
2019-02-28T14:45:07.125Z,44.50
2019-02-28T14:47:34.077Z,46.00
2019-02-28T14:50:01.948Z,46.80
2019-02-28T14:52:30.045Z,48.70
2019-02-28T14:54:58.323Z,46.13
2019-02-28T14:57:26.303Z,41.63
2019-02-28T14:59:54.049Z,48.57
2019-02-28T15:02:21.831Z,44.67
2019-02-28T15:04:49.587Z,45.03
2019-02-28T15:07:17.669Z,47.37
2019-02-28T15:09:45.434Z,45.30
2019-02-28T15:12:13.197Z,46.27
2019-02-28T15:14:43.247Z,44.07
2019-02-28T15:17:10.616Z,45.20
2019-02-28T15:19:38.392Z,42.10
2019-02-28T15:22:06.172Z,45.03
2019-02-28T15:24:35.606Z,45.50
2019-02-28T15:27:04.483Z,46.80
2019-02-28T15:29:33.102Z,46.07
2019-02-28T15:32:00.888Z,47.47
2019-02-28T15:34:28.646Z,49.80
2019-02-28T15:36:59.326Z,45.67
2019-02-28T15:39:26.084Z,45.13
2019-02-28T15:41:54.498Z,45.03
2019-02-28T15:44:25.586Z,47.93
2019-02-28T15:46:52.722Z,46.53
2019-02-28T15:49:20.744Z,50.77
2019-02-28T15:51:48.938Z,46.40
2019-02-28T15:54:16.991Z,49.10
2019-02-28T15:56:45.113Z,49.37
2019-02-28T15:59:14.815Z,46.20
2019-02-28T16:01:43.646Z,49.87
2019-02-28T16:04:11.761Z,49.33
2019-02-28T16:06:39.966Z,49.03
2019-02-28T16:09:12.487Z,49.03
2019-02-28T16:11:41.020Z,49.33
2019-02-28T16:14:14.563Z,48.97
2019-02-28T16:16:39.980Z,47.87
2019-02-28T16:19:08.696Z,45.37
2019-02-28T16:21:38.163Z,49.50
2019-02-28T16:24:07.596Z,46.77
2019-02-28T16:26:35.684Z,43.53
2019-02-28T16:29:08.590Z,40.67
2019-02-28T16:31:43.795Z,39.57
2019-02-28T16:34:13.918Z,40.37
2019-02-28T16:36:43.666Z,41.10
2019-02-28T16:39:13.034Z,37.20
2019-02-28T16:41:49.248Z,38.27
2019-02-28T16:44:27.652Z,38.20
2019-02-28T16:47:06.206Z,36.63
2019-02-28T16:50:03.243Z,40.63
2019-02-28T16:52:37.355Z,35.43
2019-02-28T16:55:08.436Z,41.30
2019-02-28T16:57:37.607Z,35.10
2019-02-28T17:00:07.738Z,33.93
2019-02-28T17:03:54.729Z,38.07
2019-02-28T17:06:24.115Z,36.00
2019-02-28T17:09:18.204Z,32.67
2019-02-28T17:12:17.112Z,37.57
2019-02-28T17:14:48.338Z,36.63
2019-02-28T17:17:28.997Z,40.50
2019-02-28T17:20:03.003Z,35.87
2019-02-28T17:22:31.902Z,37.77
2019-02-28T17:25:03.322Z,36.77
2019-02-28T17:27:54.495Z,36.23
2019-02-28T17:30:48.649Z,35.37
2019-02-28T17:33:17.695Z,37.33
2019-02-28T17:35:45.942Z,39.47
2019-02-28T17:38:14.030Z,43.27
2019-02-28T17:40:42.128Z,39.23
2019-02-28T17:43:10.192Z,37.73
2019-02-28T17:45:39.322Z,36.63
2019-02-28T17:49:33.253Z,37.23
2019-02-28T17:52:17.880Z,38.63
2019-02-28T17:55:16.823Z,41.40
2019-02-28T17:58:24.848Z,39.47
2019-02-28T18:01:48.467Z,36.23
2019-02-28T18:05:00.453Z,36.60
2019-02-28T18:08:02.754Z,36.27
2019-02-28T18:11:37.198Z,37.93
2019-02-28T18:15:05.618Z,39.20
2019-02-28T18:18:52.032Z,37.10
2019-02-28T18:22:52.040Z,37.80
2019-02-28T18:26:38.716Z,37.20
2019-02-28T18:29:16.076Z,37.80
2019-02-28T18:31:43.861Z,40.73
2019-02-28T18:34:24.838Z,40.70
2019-02-28T18:36:52.650Z,37.77
2019-02-28T18:39:20.412Z,39.03
2019-02-28T18:41:48.219Z,39.83
2019-02-28T18:44:15.995Z,42.70
2019-02-28T18:46:43.849Z,37.73
2019-02-28T18:49:11.714Z,40.67
2019-02-28T18:51:39.523Z,39.30
2019-02-28T18:54:08.378Z,40.63
2019-02-28T18:56:36.149Z,40.67
2019-02-28T18:59:04.077Z,38.30
2019-02-28T19:01:31.873Z,39.37
2019-02-28T19:03:59.693Z,43.73
2019-02-28T19:06:27.511Z,42.10
2019-02-28T19:08:55.313Z,39.43
2019-02-28T19:11:23.108Z,39.33
2019-02-28T19:13:50.884Z,42.13
2019-02-28T19:16:19.529Z,42.47
2019-02-28T19:18:47.388Z,45.90
2019-02-28T19:21:15.215Z,42.80
2019-02-28T19:23:43.040Z,40.37
2019-02-28T19:26:10.832Z,42.07
2019-02-28T19:28:38.580Z,41.97
2019-02-28T19:31:06.356Z,38.10
2019-02-28T19:33:34.099Z,39.80
2019-02-28T19:36:01.912Z,41.17
2019-02-28T19:38:30.136Z,41.30
2019-02-28T19:40:59.298Z,42.70
2019-02-28T19:43:27.058Z,45.23
2019-02-28T19:45:55.463Z,43.67
2019-02-28T19:48:24.206Z,45.83
2019-02-28T19:50:51.948Z,48.53
2019-02-28T19:53:19.762Z,48.40
2019-02-28T19:55:47.539Z,43.30
2019-02-28T19:58:15.398Z,46.97
2019-02-28T20:00:43.252Z,47.70
2019-02-28T20:03:11.117Z,47.60
2019-02-28T20:05:40.331Z,44.07
2019-02-28T20:08:08.130Z,48.87
2019-02-28T20:10:37.197Z,44.87
2019-02-28T20:13:15.530Z,48.97
2019-02-28T20:15:43.297Z,47.50
2019-02-28T20:18:11.314Z,47.80
2019-02-28T20:20:39.250Z,43.87
2019-02-28T20:23:08.406Z,47.13
2019-02-28T20:25:38.504Z,48.43
2019-02-28T20:28:06.315Z,49.37
2019-02-28T20:30:37.081Z,52.87
2019-02-28T20:33:04.972Z,46.57
2019-02-28T20:35:35.554Z,52.63
2019-02-28T20:38:03.585Z,48.63
2019-02-28T20:40:33.809Z,53.50
2019-02-28T20:43:01.612Z,49.53
2019-02-28T20:45:29.377Z,51.63
2019-02-28T20:47:57.632Z,50.53
2019-02-28T20:50:40.271Z,54.43
2019-02-28T20:53:08.241Z,58.47
2019-02-28T20:55:36.015Z,55.93
2019-02-28T20:58:06.859Z,59.00
2019-02-28T21:00:34.603Z,60.30
2019-02-28T21:03:02.680Z,64.33
2019-02-28T21:05:30.486Z,62.47
2019-02-28T21:07:58.330Z,60.13
2019-02-28T21:10:28.623Z,62.33
2019-02-28T21:12:56.412Z,58.27
2019-02-28T21:15:24.900Z,64.67
2019-02-28T21:17:52.732Z,61.63
2019-02-28T21:20:20.539Z,64.80
2019-02-28T21:22:48.299Z,66.23
2019-02-28T21:25:16.122Z,61.57
2019-02-28T21:27:43.910Z,60.27
2019-02-28T21:30:17.279Z,61.03
2019-02-28T21:32:45.028Z,61.43
2019-02-28T21:35:14.834Z,65.47
2019-02-28T21:37:42.546Z,60.83
2019-02-28T21:40:11.638Z,60.77
2019-02-28T21:42:39.426Z,64.17
2019-02-28T21:45:08.868Z,63.20
2019-02-28T21:47:36.619Z,61.17
2019-02-28T21:50:08.385Z,55.53
2019-02-28T21:52:36.150Z,63.30
2019-02-28T21:55:04.893Z,57.27
2019-02-28T21:57:32.687Z,64.00
2019-02-28T22:00:00.481Z,60.00
2019-02-28T22:02:28.231Z,61.30
2019-02-28T22:04:55.986Z,59.73
2019-02-28T22:07:23.759Z,56.80
2019-02-28T22:09:51.519Z,56.00
2019-02-28T22:12:19.303Z,56.60
2019-02-28T22:14:47.043Z,56.73
2019-02-28T22:17:14.792Z,58.23
2019-02-28T22:19:42.580Z,55.90
2019-02-28T22:22:10.346Z,58.10
2019-02-28T22:24:38.093Z,56.87
2019-02-28T22:27:05.990Z,52.40
2019-02-28T22:29:33.792Z,56.07
2019-02-28T22:32:24.196Z,53.50
2019-02-28T22:34:51.923Z,56.07
2019-02-28T22:37:19.730Z,57.27
2019-02-28T22:39:47.559Z,56.13
2019-02-28T22:42:22.107Z,53.60
2019-02-28T22:44:45.237Z,56.63
2019-02-28T22:47:12.974Z,58.37
2019-02-28T22:49:40.755Z,55.20
2019-02-28T22:52:08.538Z,56.23
2019-02-28T22:54:36.298Z,53.43
2019-02-28T22:57:04.074Z,54.67
2019-02-28T22:59:31.833Z,52.93
2019-02-28T23:01:59.581Z,59.10
2019-02-28T23:04:27.307Z,55.17
2019-02-28T23:06:55.064Z,58.43
2019-02-28T23:09:22.776Z,60.07
2019-02-28T23:11:50.520Z,59.73
2019-02-28T23:14:18.447Z,55.40
2019-02-28T23:16:46.205Z,56.03
2019-02-28T23:19:13.967Z,58.67
2019-02-28T23:21:41.723Z,60.40
2019-02-28T23:24:09.492Z,58.00
2019-02-28T23:27:12.060Z,64.53
2019-02-28T23:30:20.333Z,61.40
2019-02-28T23:33:07.795Z,63.47
2019-02-28T23:35:41.398Z,64.10
2019-02-28T23:38:09.194Z,72.27
2019-02-28T23:40:37.066Z,70.53
2019-02-28T23:43:05.028Z,67.37
2019-02-28T23:45:32.936Z,69.07
2019-02-28T23:48:00.715Z,64.23
2019-02-28T23:50:28.653Z,56.67
2019-02-28T23:52:56.414Z,68.90
2019-02-28T23:55:24.377Z,60.53
2019-02-28T23:57:52.372Z,60.33
